sensor_id;sensor_type;location;lat;lon;timestamp;pressure;altitude;pressure_sealevel;temperature;humidity
15529;BME280;7866;52.280;9.500;2023-04-23T00:01:25;99395.91;;;16.07;74.76
15529;BME280;7866;52.280;9.500;2023-04-23T00:06:27;99399.72;;;15.99;74.81
15529;BME280;7866;52.280;9.500;2023-04-23T00:11:31;99386.72;;;16.08;74.36
15529;BME280;7866;52.280;9.500;2023-04-23T00:16:33;99382.72;;;15.98;74.71
15529;BME280;7866;52.280;9.500;2023-04-23T00:21:35;99389.75;;;15.99;74.75
15529;BME280;7866;52.280;9.500;2023-04-23T00:26:38;99384.22;;;15.94;74.59
15529;BME280;7866;52.280;9.500;2023-04-23T00:31:40;99379.06;;;15.93;75.25
15529;BME280;7866;52.280;9.500;2023-04-23T00:36:41;99383.94;;;15.84;76.76
15529;BME280;7866;52.280;9.500;2023-04-23T00:41:44;99381.31;;;15.96;76.00
15529;BME280;7866;52.280;9.500;2023-04-23T00:46:47;99384.34;;;15.99;75.66
15529;BME280;7866;52.280;9.500;2023-04-23T00:51:49;99377.94;;;15.82;76.80
15529;BME280;7866;52.280;9.500;2023-04-23T00:56:53;99388.66;;;15.89;76.25
15529;BME280;7866;52.280;9.500;2023-04-23T01:01:57;99391.38;;;15.70;77.10
15529;BME280;7866;52.280;9.500;2023-04-23T01:06:59;99402.41;;;15.44;79.18
15529;BME280;7866;52.280;9.500;2023-04-23T01:12:04;99392.28;;;15.21;79.64
15529;BME280;7866;52.280;9.500;2023-04-23T01:17:06;99402.88;;;14.97;77.20
15529;BME280;7866;52.280;9.500;2023-04-23T01:22:10;99394.69;;;14.86;79.08
15529;BME280;7866;52.280;9.500;2023-04-23T01:27:12;99402.25;;;14.70;79.87
15529;BME280;7866;52.280;9.500;2023-04-23T01:32:14;99405.63;;;14.66;79.43
15529;BME280;7866;52.280;9.500;2023-04-23T01:37:18;99411.16;;;14.71;78.90
15529;BME280;7866;52.280;9.500;2023-04-23T01:42:20;99401.16;;;14.53;79.81
15529;BME280;7866;52.280;9.500;2023-04-23T01:47:22;99401.88;;;14.67;78.90
15529;BME280;7866;52.280;9.500;2023-04-23T01:52:26;99409.19;;;14.60;79.41
15529;BME280;7866;52.280;9.500;2023-04-23T01:57:27;99410.47;;;14.57;79.62
15529;BME280;7866;52.280;9.500;2023-04-23T02:02:29;99409.25;;;14.46;79.91
15529;BME280;7866;52.280;9.500;2023-04-23T02:07:32;99407.50;;;14.27;79.58
15529;BME280;7866;52.280;9.500;2023-04-23T02:12:34;99400.09;;;14.16;79.33
15529;BME280;7866;52.280;9.500;2023-04-23T02:17:36;99405.16;;;13.99;80.57
15529;BME280;7866;52.280;9.500;2023-04-23T02:22:41;99403.09;;;13.94;78.84
15529;BME280;7866;52.280;9.500;2023-04-23T02:27:42;99408.09;;;13.91;79.85
15529;BME280;7866;52.280;9.500;2023-04-23T02:32:44;99404.41;;;13.85;78.49
15529;BME280;7866;52.280;9.500;2023-04-23T02:37:47;99407.34;;;13.70;79.11
15529;BME280;7866;52.280;9.500;2023-04-23T02:42:49;99399.91;;;13.66;78.88
15529;BME280;7866;52.280;9.500;2023-04-23T02:47:51;99412.31;;;13.73;77.12
15529;BME280;7866;52.280;9.500;2023-04-23T02:52:55;99407.34;;;13.77;76.89
15529;BME280;7866;52.280;9.500;2023-04-23T02:57:56;99404.66;;;13.64;76.97
15529;BME280;7866;52.280;9.500;2023-04-23T03:02:58;99413.41;;;13.52;76.57
15529;BME280;7866;52.280;9.500;2023-04-23T03:08:01;99419.81;;;13.58;76.58
15529;BME280;7866;52.280;9.500;2023-04-23T03:13:03;99423.13;;;13.53;77.04
15529;BME280;7866;52.280;9.500;2023-04-23T03:18:04;99431.97;;;13.80;75.41
15529;BME280;7866;52.280;9.500;2023-04-23T03:23:09;99433.69;;;13.48;76.77
15529;BME280;7866;52.280;9.500;2023-04-23T03:28:10;99440.03;;;13.74;75.71
15529;BME280;7866;52.280;9.500;2023-04-23T03:33:12;99440.06;;;13.67;75.46
15529;BME280;7866;52.280;9.500;2023-04-23T03:38:15;99449.94;;;13.87;75.43
15529;BME280;7866;52.280;9.500;2023-04-23T03:43:17;99453.03;;;13.90;75.36
15529;BME280;7866;52.280;9.500;2023-04-23T03:48:19;99450.09;;;13.98;75.21
15529;BME280;7866;52.280;9.500;2023-04-23T03:53:22;99459.91;;;13.73;75.81
15529;BME280;7866;52.280;9.500;2023-04-23T03:58:24;99464.91;;;13.69;77.53
15529;BME280;7866;52.280;9.500;2023-04-23T04:03:25;99465.72;;;13.70;77.74
15529;BME280;7866;52.280;9.500;2023-04-23T04:08:29;99468.25;;;13.38;79.12
15529;BME280;7866;52.280;9.500;2023-04-23T04:13:31;99468.66;;;13.42;79.46
15529;BME280;7866;52.280;9.500;2023-04-23T04:18:32;99478.59;;;13.15;80.32
15529;BME280;7866;52.280;9.500;2023-04-23T04:23:36;99476.31;;;13.12;79.83
15529;BME280;7866;52.280;9.500;2023-04-23T04:28:37;99481.47;;;12.93;79.58
15529;BME280;7866;52.280;9.500;2023-04-23T04:33:39;99477.75;;;12.81;79.11
15529;BME280;7866;52.280;9.500;2023-04-23T04:38:42;99485.59;;;12.89;80.07
15529;BME280;7866;52.280;9.500;2023-04-23T04:43:44;99493.47;;;13.04;80.07
15529;BME280;7866;52.280;9.500;2023-04-23T04:48:46;99494.69;;;12.81;80.06
15529;BME280;7866;52.280;9.500;2023-04-23T04:53:49;99502.75;;;12.95;79.19
15529;BME280;7866;52.280;9.500;2023-04-23T04:58:51;99509.56;;;12.77;79.31
15529;BME280;7866;52.280;9.500;2023-04-23T05:03:52;99520.34;;;12.97;78.30
15529;BME280;7866;52.280;9.500;2023-04-23T05:08:55;99504.16;;;12.71;79.34
15529;BME280;7866;52.280;9.500;2023-04-23T05:13:57;99500.00;;;12.55;79.60
15529;BME280;7866;52.280;9.500;2023-04-23T05:18:58;99508.88;;;12.49;80.72
15529;BME280;7866;52.280;9.500;2023-04-23T05:24:01;99508.06;;;12.55;80.38
15529;BME280;7866;52.280;9.500;2023-04-23T05:29:03;99502.13;;;12.86;78.98
15529;BME280;7866;52.280;9.500;2023-04-23T05:34:05;99512.22;;;12.71;78.55
15529;BME280;7866;52.280;9.500;2023-04-23T05:39:08;99517.63;;;12.84;78.53
15529;BME280;7866;52.280;9.500;2023-04-23T05:44:09;99523.63;;;12.73;77.74
15529;BME280;7866;52.280;9.500;2023-04-23T05:49:11;99518.88;;;12.88;78.65
15529;BME280;7866;52.280;9.500;2023-04-23T05:54:14;99525.50;;;12.99;78.27
15529;BME280;7866;52.280;9.500;2023-04-23T05:59:15;99524.00;;;12.70;79.95
15529;BME280;7866;52.280;9.500;2023-04-23T06:04:17;99523.16;;;12.63;80.52
15529;BME280;7866;52.280;9.500;2023-04-23T06:09:20;99521.75;;;12.73;80.66
15529;BME280;7866;52.280;9.500;2023-04-23T06:14:22;99516.41;;;12.93;80.16
15529;BME280;7866;52.280;9.500;2023-04-23T06:19:24;99528.81;;;13.07;79.25
15529;BME280;7866;52.280;9.500;2023-04-23T06:24:28;99526.56;;;13.11;77.99
15529;BME280;7866;52.280;9.500;2023-04-23T06:29:30;99529.88;;;13.06;78.63
15529;BME280;7866;52.280;9.500;2023-04-23T06:34:32;99516.88;;;13.43;78.21
15529;BME280;7866;52.280;9.500;2023-04-23T06:39:35;99516.03;;;13.43;76.27
15529;BME280;7866;52.280;9.500;2023-04-23T06:44:36;99519.56;;;13.43;77.23
15529;BME280;7866;52.280;9.500;2023-04-23T06:49:39;99514.78;;;13.52;77.21
15529;BME280;7866;52.280;9.500;2023-04-23T06:54:42;99520.53;;;13.82;75.99
15529;BME280;7866;52.280;9.500;2023-04-23T06:59:43;99521.56;;;13.94;75.10
15529;BME280;7866;52.280;9.500;2023-04-23T07:04:45;99512.28;;;13.77;74.35
15529;BME280;7866;52.280;9.500;2023-04-23T07:09:48;99514.63;;;14.25;72.97
15529;BME280;7866;52.280;9.500;2023-04-23T07:14:49;99503.22;;;14.29;71.83
15529;BME280;7866;52.280;9.500;2023-04-23T07:19:53;99510.81;;;14.52;70.20
15529;BME280;7866;52.280;9.500;2023-04-23T07:24:56;99507.59;;;14.69;69.85
15529;BME280;7866;52.280;9.500;2023-04-23T07:29:57;99502.78;;;15.09;68.36
15529;BME280;7866;52.280;9.500;2023-04-23T07:35:01;99497.66;;;15.26;66.97
15529;BME280;7866;52.280;9.500;2023-04-23T07:40:06;99489.09;;;15.97;64.85
15529;BME280;7866;52.280;9.500;2023-04-23T07:45:09;99482.78;;;16.04;63.42
15529;BME280;7866;52.280;9.500;2023-04-23T07:50:11;99470.38;;;16.33;62.40
15529;BME280;7866;52.280;9.500;2023-04-23T07:55:14;99471.69;;;16.12;61.53
15529;BME280;7866;52.280;9.500;2023-04-23T08:00:16;99474.47;;;16.54;59.62
15529;BME280;7866;52.280;9.500;2023-04-23T08:05:18;99477.84;;;16.79;59.12
15529;BME280;7866;52.280;9.500;2023-04-23T08:10:52;99476.91;;;16.25;57.95
15529;BME280;7866;52.280;9.500;2023-04-23T08:15:54;99458.25;;;16.95;58.96
15529;BME280;7866;52.280;9.500;2023-04-23T08:20:56;99467.00;;;16.37;60.57
15529;BME280;7866;52.280;9.500;2023-04-23T08:25:59;99465.44;;;16.60;59.49
15529;BME280;7866;52.280;9.500;2023-04-23T08:31:01;99462.31;;;17.16;58.25
15529;BME280;7866;52.280;9.500;2023-04-23T08:36:03;99461.81;;;17.55;57.51
15529;BME280;7866;52.280;9.500;2023-04-23T08:41:09;99451.00;;;17.08;58.74
15529;BME280;7866;52.280;9.500;2023-04-23T08:46:12;99446.66;;;17.30;58.93
15529;BME280;7866;52.280;9.500;2023-04-23T08:51:17;99438.88;;;17.10;56.85
15529;BME280;7866;52.280;9.500;2023-04-23T08:56:22;99439.69;;;17.81;54.34
15529;BME280;7866;52.280;9.500;2023-04-23T09:01:24;99439.06;;;18.03;53.47
15529;BME280;7866;52.280;9.500;2023-04-23T09:06:26;99440.06;;;18.25;53.53
15529;BME280;7866;52.280;9.500;2023-04-23T09:11:29;99437.09;;;18.27;53.92
15529;BME280;7866;52.280;9.500;2023-04-23T09:16:31;99435.28;;;18.61;53.21
15529;BME280;7866;52.280;9.500;2023-04-23T09:21:34;99434.56;;;18.65;52.42
15529;BME280;7866;52.280;9.500;2023-04-23T09:26:43;99430.09;;;18.88;52.36
15529;BME280;7866;52.280;9.500;2023-04-23T09:31:46;99429.94;;;19.28;51.45
15529;BME280;7866;52.280;9.500;2023-04-23T09:36:49;99422.41;;;18.68;52.61
15529;BME280;7866;52.280;9.500;2023-04-23T09:41:53;99424.16;;;18.91;52.34
15529;BME280;7866;52.280;9.500;2023-04-23T09:46:54;99418.00;;;18.79;52.73
15529;BME280;7866;52.280;9.500;2023-04-23T09:52:04;99422.28;;;19.08;50.36
15529;BME280;7866;52.280;9.500;2023-04-23T09:57:08;99415.22;;;19.07;52.13
15529;BME280;7866;52.280;9.500;2023-04-23T10:02:11;99403.53;;;19.24;51.53
15529;BME280;7866;52.280;9.500;2023-04-23T10:07:13;99406.66;;;19.15;52.07
15529;BME280;7866;52.280;9.500;2023-04-23T10:12:19;99400.31;;;19.10;51.93
15529;BME280;7866;52.280;9.500;2023-04-23T10:17:21;99397.69;;;19.15;51.59
15529;BME280;7866;52.280;9.500;2023-04-23T10:22:26;99397.63;;;19.87;48.69
15529;BME280;7866;52.280;9.500;2023-04-23T10:27:32;99390.53;;;19.86;49.62
15529;BME280;7866;52.280;9.500;2023-04-23T10:32:34;99388.00;;;20.02;49.62
15529;BME280;7866;52.280;9.500;2023-04-23T10:37:36;99396.16;;;20.02;49.06
15529;BME280;7866;52.280;9.500;2023-04-23T10:42:40;99389.50;;;20.41;48.22
15529;BME280;7866;52.280;9.500;2023-04-23T10:47:43;99384.50;;;20.06;48.31
15529;BME280;7866;52.280;9.500;2023-04-23T10:52:45;99381.06;;;19.89;48.54
15529;BME280;7866;52.280;9.500;2023-04-23T10:58:02;99386.06;;;19.75;48.34
15529;BME280;7866;52.280;9.500;2023-04-23T11:03:04;99374.41;;;20.02;48.29
15529;BME280;7866;52.280;9.500;2023-04-23T11:08:06;99372.41;;;19.92;47.97
15529;BME280;7866;52.280;9.500;2023-04-23T11:13:25;99369.94;;;20.39;45.11
15529;BME280;7866;52.280;9.500;2023-04-23T11:18:27;99370.19;;;20.65;47.48
15529;BME280;7866;52.280;9.500;2023-04-23T11:23:29;99367.66;;;20.04;48.41
15529;BME280;7866;52.280;9.500;2023-04-23T11:28:35;99368.28;;;19.89;48.68
15529;BME280;7866;52.280;9.500;2023-04-23T11:33:38;99363.53;;;20.02;48.88
15529;BME280;7866;52.280;9.500;2023-04-23T11:38:40;99363.91;;;19.83;48.68
15529;BME280;7866;52.280;9.500;2023-04-23T11:43:43;99358.09;;;20.02;48.02
15529;BME280;7866;52.280;9.500;2023-04-23T11:48:45;99347.63;;;20.42;47.38
15529;BME280;7866;52.280;9.500;2023-04-23T11:53:48;99343.66;;;20.23;47.72
15529;BME280;7866;52.280;9.500;2023-04-23T11:58:58;99332.88;;;20.33;47.18
15529;BME280;7866;52.280;9.500;2023-04-23T12:04:08;99330.69;;;20.03;48.02
15529;BME280;7866;52.280;9.500;2023-04-23T12:09:11;99333.63;;;20.51;46.76
15529;BME280;7866;52.280;9.500;2023-04-23T12:14:14;99338.63;;;21.06;46.30
15529;BME280;7866;52.280;9.500;2023-04-23T12:19:17;99325.84;;;20.64;46.15
15529;BME280;7866;52.280;9.500;2023-04-23T12:24:19;99316.16;;;21.26;45.63
15529;BME280;7866;52.280;9.500;2023-04-23T12:29:24;99316.97;;;20.47;47.42
15529;BME280;7866;52.280;9.500;2023-04-23T12:34:26;99310.72;;;20.79;46.33
15529;BME280;7866;52.280;9.500;2023-04-23T12:39:28;99305.97;;;20.64;45.82
15529;BME280;7866;52.280;9.500;2023-04-23T12:44:32;99299.31;;;20.23;47.15
15529;BME280;7866;52.280;9.500;2023-04-23T12:49:37;99300.66;;;19.93;47.48
15529;BME280;7866;52.280;9.500;2023-04-23T12:54:39;99319.38;;;19.89;48.14
15529;BME280;7866;52.280;9.500;2023-04-23T12:59:42;99368.38;;;18.50;56.51
15529;BME280;7866;52.280;9.500;2023-04-23T13:04:44;99379.00;;;16.41;65.79
15529;BME280;7866;52.280;9.500;2023-04-23T13:09:46;99376.66;;;15.48;69.05
15529;BME280;7866;52.280;9.500;2023-04-23T13:14:49;99378.66;;;15.34;70.08
15529;BME280;7866;52.280;9.500;2023-04-23T13:19:50;99370.56;;;15.34;70.62
15529;BME280;7866;52.280;9.500;2023-04-23T13:24:52;99379.97;;;15.07;70.89
15529;BME280;7866;52.280;9.500;2023-04-23T13:29:55;99363.47;;;14.40;72.83
15529;BME280;7866;52.280;9.500;2023-04-23T13:34:58;99348.22;;;14.34;75.50
15529;BME280;7866;52.280;9.500;2023-04-23T13:40:03;99340.25;;;14.45;74.83
15529;BME280;7866;52.280;9.500;2023-04-23T13:45:07;99327.38;;;14.47;74.47
15529;BME280;7866;52.280;9.500;2023-04-23T13:50:09;99295.38;;;14.64;74.18
15529;BME280;7866;52.280;9.500;2023-04-23T13:55:11;99279.00;;;14.84;73.94
15529;BME280;7866;52.280;9.500;2023-04-23T14:00:15;99276.81;;;15.48;72.21
15529;BME280;7866;52.280;9.500;2023-04-23T14:05:17;99257.50;;;15.63;71.30
15529;BME280;7866;52.280;9.500;2023-04-23T14:10:19;99248.78;;;15.79;71.64
15529;BME280;7866;52.280;9.500;2023-04-23T14:15:22;99247.13;;;15.66;71.67
15529;BME280;7866;52.280;9.500;2023-04-23T14:20:23;99242.09;;;15.70;70.83
15529;BME280;7866;52.280;9.500;2023-04-23T14:25:29;99242.41;;;15.92;71.11
15529;BME280;7866;52.280;9.500;2023-04-23T14:30:33;99228.56;;;16.23;69.50
15529;BME280;7866;52.280;9.500;2023-04-23T14:35:35;99218.25;;;16.67;68.33
15529;BME280;7866;52.280;9.500;2023-04-23T14:40:36;99215.59;;;17.19;68.00
15529;BME280;7866;52.280;9.500;2023-04-23T14:45:39;99211.38;;;17.97;66.41
15529;BME280;7866;52.280;9.500;2023-04-23T14:50:41;99208.09;;;18.29;63.75
15529;BME280;7866;52.280;9.500;2023-04-23T14:55:43;99200.13;;;18.56;63.04
15529;BME280;7866;52.280;9.500;2023-04-23T15:00:46;99199.03;;;18.74;62.64
15529;BME280;7866;52.280;9.500;2023-04-23T15:05:48;99201.84;;;18.45;63.69
15529;BME280;7866;52.280;9.500;2023-04-23T15:10:50;99193.00;;;18.33;63.63
15529;BME280;7866;52.280;9.500;2023-04-23T15:15:55;99190.59;;;17.86;66.13
15529;BME280;7866;52.280;9.500;2023-04-23T15:20:59;99188.19;;;18.57;66.15
15529;BME280;7866;52.280;9.500;2023-04-23T15:26:02;99184.16;;;18.77;63.64
15529;BME280;7866;52.280;9.500;2023-04-23T15:31:05;99177.41;;;19.01;61.75
15529;BME280;7866;52.280;9.500;2023-04-23T15:36:07;99169.38;;;18.89;60.79
15529;BME280;7866;52.280;9.500;2023-04-23T15:41:10;99162.09;;;18.34;60.64
15529;BME280;7866;52.280;9.500;2023-04-23T15:46:13;99149.25;;;18.08;62.36
15529;BME280;7866;52.280;9.500;2023-04-23T15:51:14;99153.34;;;17.77;63.56
15529;BME280;7866;52.280;9.500;2023-04-23T15:56:16;99146.00;;;17.60;64.18
15529;BME280;7866;52.280;9.500;2023-04-23T16:01:19;99137.47;;;17.52;65.39
15529;BME280;7866;52.280;9.500;2023-04-23T16:06:20;99139.38;;;17.39;66.59
15529;BME280;7866;52.280;9.500;2023-04-23T16:11:22;99132.66;;;17.42;66.63
15529;BME280;7866;52.280;9.500;2023-04-23T16:16:28;99127.94;;;17.49;66.75
15529;BME280;7866;52.280;9.500;2023-04-23T16:21:30;99122.53;;;17.49;66.91
15529;BME280;7866;52.280;9.500;2023-04-23T16:26:32;99116.16;;;17.27;67.62
15529;BME280;7866;52.280;9.500;2023-04-23T16:31:35;99112.31;;;17.39;67.85
15529;BME280;7866;52.280;9.500;2023-04-23T16:36:37;99106.31;;;17.20;68.00
15529;BME280;7866;52.280;9.500;2023-04-23T16:41:38;99101.03;;;17.14;67.84
15529;BME280;7866;52.280;9.500;2023-04-23T16:46:41;99086.69;;;17.13;68.58
15529;BME280;7866;52.280;9.500;2023-04-23T16:51:43;99081.28;;;17.13;67.82
15529;BME280;7866;52.280;9.500;2023-04-23T16:56:45;99086.75;;;17.02;68.65
15529;BME280;7866;52.280;9.500;2023-04-23T17:01:48;99088.69;;;16.89;69.12
15529;BME280;7866;52.280;9.500;2023-04-23T17:06:49;99078.72;;;16.78;69.88
15529;BME280;7866;52.280;9.500;2023-04-23T17:11:51;99069.66;;;16.84;70.05
15529;BME280;7866;52.280;9.500;2023-04-23T17:16:54;99061.69;;;16.78;69.79
15529;BME280;7866;52.280;9.500;2023-04-23T17:21:56;99051.94;;;16.65;70.70
15529;BME280;7866;52.280;9.500;2023-04-23T17:26:58;99055.84;;;16.57;71.86
15529;BME280;7866;52.280;9.500;2023-04-23T17:32:02;99055.28;;;16.43;71.35
15529;BME280;7866;52.280;9.500;2023-04-23T17:37:03;99050.38;;;16.40;72.06
15529;BME280;7866;52.280;9.500;2023-04-23T17:42:05;99045.09;;;16.34;72.73
15529;BME280;7866;52.280;9.500;2023-04-23T17:47:08;99041.47;;;16.28;73.11
15529;BME280;7866;52.280;9.500;2023-04-23T17:52:12;99031.59;;;16.34;73.17
15529;BME280;7866;52.280;9.500;2023-04-23T17:57:16;99028.59;;;16.07;74.07
15529;BME280;7866;52.280;9.500;2023-04-23T18:02:19;99033.63;;;16.03;74.84
15529;BME280;7866;52.280;9.500;2023-04-23T18:07:21;99023.44;;;15.93;74.93
15529;BME280;7866;52.280;9.500;2023-04-23T18:12:23;99009.59;;;15.78;75.23
15529;BME280;7866;52.280;9.500;2023-04-23T18:17:26;99009.34;;;15.56;75.85
15529;BME280;7866;52.280;9.500;2023-04-23T18:22:46;98997.22;;;15.47;76.71
15529;BME280;7866;52.280;9.500;2023-04-23T18:27:48;98997.91;;;15.19;77.35
15529;BME280;7866;52.280;9.500;2023-04-23T18:32:58;98992.84;;;15.11;77.20
15529;BME280;7866;52.280;9.500;2023-04-23T18:38:04;98995.19;;;15.07;77.86
15529;BME280;7866;52.280;9.500;2023-04-23T18:43:10;98990.78;;;14.83;78.62
15529;BME280;7866;52.280;9.500;2023-04-23T18:48:38;98993.72;;;14.81;79.20
15529;BME280;7866;52.280;9.500;2023-04-23T18:53:41;98986.69;;;14.80;78.78
15529;BME280;7866;52.280;9.500;2023-04-23T18:58:43;98985.03;;;14.79;78.62
15529;BME280;7866;52.280;9.500;2023-04-23T19:03:46;98993.13;;;14.79;78.19
15529;BME280;7866;52.280;9.500;2023-04-23T19:08:48;98990.88;;;14.64;78.25
15529;BME280;7866;52.280;9.500;2023-04-23T19:13:50;98992.13;;;14.43;79.89
15529;BME280;7866;52.280;9.500;2023-04-23T19:18:53;99007.50;;;14.61;79.57
15529;BME280;7866;52.280;9.500;2023-04-23T19:23:55;99006.38;;;14.50;79.95
15529;BME280;7866;52.280;9.500;2023-04-23T19:28:57;99014.47;;;14.50;78.82
15529;BME280;7866;52.280;9.500;2023-04-23T19:34:00;98996.09;;;14.59;78.48
15529;BME280;7866;52.280;9.500;2023-04-23T19:39:02;98978.75;;;14.55;78.66
15529;BME280;7866;52.280;9.500;2023-04-23T19:44:04;98973.28;;;14.43;79.52
15529;BME280;7866;52.280;9.500;2023-04-23T19:49:07;98974.41;;;14.36;79.31
15529;BME280;7866;52.280;9.500;2023-04-23T19:54:08;98974.88;;;14.51;78.69
15529;BME280;7866;52.280;9.500;2023-04-23T19:59:10;98962.81;;;14.53;78.54
15529;BME280;7866;52.280;9.500;2023-04-23T20:04:14;98956.75;;;14.40;78.85
15529;BME280;7866;52.280;9.500;2023-04-23T20:09:16;98955.47;;;14.42;79.03
15529;BME280;7866;52.280;9.500;2023-04-23T20:14:18;98954.38;;;14.32;80.03
15529;BME280;7866;52.280;9.500;2023-04-23T20:19:21;98942.19;;;14.29;80.28
15529;BME280;7866;52.280;9.500;2023-04-23T20:24:24;98933.69;;;14.14;80.21
15529;BME280;7866;52.280;9.500;2023-04-23T20:29:26;98926.75;;;14.06;81.13
15529;BME280;7866;52.280;9.500;2023-04-23T20:34:31;98906.03;;;14.07;81.38
15529;BME280;7866;52.280;9.500;2023-04-23T20:39:32;98902.78;;;13.86;82.07
15529;BME280;7866;52.280;9.500;2023-04-23T20:44:36;98910.34;;;13.77;82.95
15529;BME280;7866;52.280;9.500;2023-04-23T20:49:42;98924.44;;;13.91;82.49
15529;BME280;7866;52.280;9.500;2023-04-23T20:54:44;98956.91;;;13.78;82.50
15529;BME280;7866;52.280;9.500;2023-04-23T20:59:45;98974.84;;;14.02;79.28
15529;BME280;7866;52.280;9.500;2023-04-23T21:04:48;98947.69;;;14.04;78.74
15529;BME280;7866;52.280;9.500;2023-04-23T21:09:50;98944.16;;;14.03;79.22
15529;BME280;7866;52.280;9.500;2023-04-23T21:14:53;98945.00;;;13.86;81.15
15529;BME280;7866;52.280;9.500;2023-04-23T21:19:56;98937.16;;;13.66;82.32
15529;BME280;7866;52.280;9.500;2023-04-23T21:24:58;98904.84;;;13.47;83.68
15529;BME280;7866;52.280;9.500;2023-04-23T21:30:04;98888.88;;;13.34;82.26
15529;BME280;7866;52.280;9.500;2023-04-23T21:35:08;98882.00;;;13.38;82.20
15529;BME280;7866;52.280;9.500;2023-04-23T21:40:10;98881.09;;;13.26;83.39
15529;BME280;7866;52.280;9.500;2023-04-23T21:45:12;98884.59;;;13.26;82.33
15529;BME280;7866;52.280;9.500;2023-04-23T21:50:15;98883.56;;;13.27;81.68
15529;BME280;7866;52.280;9.500;2023-04-23T21:55:17;98878.56;;;13.06;82.34
15529;BME280;7866;52.280;9.500;2023-04-23T22:00:19;98874.88;;;13.00;82.95
15529;BME280;7866;52.280;9.500;2023-04-23T22:05:23;98868.94;;;12.98;81.69
15529;BME280;7866;52.280;9.500;2023-04-23T22:10:24;98868.78;;;12.93;82.25
15529;BME280;7866;52.280;9.500;2023-04-23T22:15:26;98879.34;;;12.88;82.41
15529;BME280;7866;52.280;9.500;2023-04-23T22:20:29;98875.44;;;12.84;82.94
15529;BME280;7866;52.280;9.500;2023-04-23T22:25:31;98871.13;;;12.58;84.09
15529;BME280;7866;52.280;9.500;2023-04-23T22:30:33;98862.41;;;12.63;82.98
15529;BME280;7866;52.280;9.500;2023-04-23T22:35:36;98860.59;;;12.56;83.73
15529;BME280;7866;52.280;9.500;2023-04-23T22:40:38;98860.94;;;12.67;83.50
15529;BME280;7866;52.280;9.500;2023-04-23T22:45:39;98858.25;;;12.67;82.46
15529;BME280;7866;52.280;9.500;2023-04-23T22:50:43;98855.16;;;12.63;81.93
15529;BME280;7866;52.280;9.500;2023-04-23T22:55:44;98851.28;;;12.59;81.80
15529;BME280;7866;52.280;9.500;2023-04-23T23:00:46;98839.31;;;12.80;81.01
15529;BME280;7866;52.280;9.500;2023-04-23T23:05:49;98842.09;;;12.73;80.83
15529;BME280;7866;52.280;9.500;2023-04-23T23:10:51;98844.66;;;12.62;80.87
15529;BME280;7866;52.280;9.500;2023-04-23T23:15:52;98850.06;;;12.80;80.53
15529;BME280;7866;52.280;9.500;2023-04-23T23:20:56;98835.78;;;12.61;80.76
15529;BME280;7866;52.280;9.500;2023-04-23T23:25:57;98856.00;;;12.64;80.95
15529;BME280;7866;52.280;9.500;2023-04-23T23:30:59;98842.41;;;12.58;81.79
15529;BME280;7866;52.280;9.500;2023-04-23T23:36:03;98837.47;;;12.55;81.67
15529;BME280;7866;52.280;9.500;2023-04-23T23:41:04;98834.94;;;12.61;81.31
15529;BME280;7866;52.280;9.500;2023-04-23T23:46:06;98830.59;;;12.60;81.47
15529;BME280;7866;52.280;9.500;2023-04-23T23:51:09;98824.03;;;12.55;80.94
15529;BME280;7866;52.280;9.500;2023-04-23T23:56:11;98824.00;;;12.62;80.24
